Time;durP1;ratioP1;P1;durP2;ratioP2;P2;SDS_P1;SDS_P2;PMS_P1;PMS_P2;Temp;Humidity;BMP_temperature;BMP_pressure;BME280_temperature;BME280_humidity;BME280_pressure;Samples;Min_cycle;Max_cycle;Signal;HPM_P1;HPM_P2
2021/07/29 00:00:21;;;;;;;5.60;3.78;;;14.10;1.40;;;15.69;100.00;95392.66;647226;212;31595;-72
2021/07/29 00:03:08;;;;;;;4.28;3.87;;;14.10;1.40;;;15.62;100.00;95392.95;646286;212;31561;-71
2021/07/29 00:05:56;;;;;;;4.35;3.70;;;14.00;1.40;;;15.77;100.00;95390.13;646405;216;31578;-70
2021/07/29 00:08:40;;;;;;;6.35;4.30;;;14.10;1.40;;;15.69;100.00;95380.23;647065;216;42202;-71
2021/07/29 00:11:22;;;;;;;5.30;4.80;;;14.20;1.40;;;15.77;100.00;95386.93;644974;216;31604;-72
2021/07/29 00:14:09;;;;;;;6.65;4.60;;;14.30;1.40;;;15.94;100.00;95385.58;645260;216;42212;-71
2021/07/29 00:17:00;;;;;;;5.00;4.50;;;14.40;1.40;;;15.95;100.00;95392.02;620093;226;32427;-71
2021/07/29 00:19:44;;;;;;;6.05;4.40;;;14.40;1.40;;;15.90;100.00;95379.75;646773;216;31553;-72
2021/07/29 00:22:35;;;;;;;5.15;4.30;;;14.40;1.40;;;15.96;100.00;95383.13;645627;216;31600;-71
2021/07/29 00:25:23;;;;;;;4.80;3.80;;;14.30;1.40;;;15.92;100.00;95379.44;645755;216;31650;-72
2021/07/29 00:28:11;;;;;;;6.93;3.75;;;14.40;1.40;;;15.93;100.00;95381.46;646527;216;32213;-71
2021/07/29 00:30:52;;;;;;;7.28;4.20;;;14.30;1.40;;;15.89;100.00;95376.55;645885;212;32862;-71
2021/07/29 00:35:53;;;;;;;5.75;4.25;;;14.30;1.40;;;15.96;100.00;95379.73;646110;216;42179;-71
2021/07/29 00:38:35;;;;;;;5.65;4.18;;;14.30;1.40;;;15.91;100.00;95379.27;645790;216;31631;-72
2021/07/29 00:41:22;;;;;;;6.62;4.32;;;14.30;1.40;;;15.87;100.00;95382.22;634380;216;31732;-71
2021/07/29 00:44:10;;;;;;;6.15;3.62;;;14.30;1.40;;;15.88;100.00;95385.96;646245;216;31728;-71
2021/07/29 00:46:52;;;;;;;6.35;3.83;;;14.30;1.40;;;15.85;100.00;95383.11;645947;212;31581;-72
2021/07/29 00:49:35;;;;;;;6.47;3.83;;;14.20;1.40;;;15.72;100.00;95378.09;646812;216;31554;-72
2021/07/29 00:52:16;;;;;;;9.40;3.80;;;14.10;1.40;;;15.63;100.00;95375.42;646787;216;31672;-71
2021/07/29 00:54:58;;;;;;;6.32;4.57;;;13.90;1.40;;;15.61;100.00;95368.23;647593;212;31849;-72
2021/07/29 00:57:39;;;;;;;8.10;4.10;;;13.90;1.40;;;15.47;100.00;95363.70;645250;216;31624;-72
2021/07/29 01:00:27;;;;;;;4.90;3.70;;;13.80;1.40;;;15.39;100.00;95361.05;645796;216;31562;-71
2021/07/29 01:03:09;;;;;;;8.70;5.00;;;13.90;1.40;;;15.50;100.00;95365.25;645610;216;31550;-72
2021/07/29 01:05:50;;;;;;;6.78;4.60;;;13.90;1.40;;;15.55;100.00;95363.62;646861;216;31563;-72
2021/07/29 01:08:55;;;;;;;9.00;4.73;;;14.10;1.40;;;15.53;100.00;95365.95;646181;216;33338;-71
2021/07/29 01:11:43;;;;;;;7.30;4.30;;;14.10;1.40;;;15.56;100.00;95370.49;645653;212;31580;-71
2021/07/29 01:14:31;;;;;;;8.82;4.75;;;14.10;1.40;;;15.63;100.00;95358.61;646779;216;31572;-71
2021/07/29 01:17:15;;;;;;;4.82;4.30;;;14.10;1.40;;;15.66;100.00;95362.98;645755;212;31568;-72
2021/07/29 01:20:03;;;;;;;8.10;4.25;;;14.10;1.40;;;15.60;100.00;95356.63;618646;226;32073;-71
2021/07/29 01:22:50;;;;;;;8.23;4.57;;;14.10;1.40;;;15.68;100.00;95357.48;619938;225;32041;-71
2021/07/29 01:25:41;;;;;;;8.30;4.40;;;14.20;1.40;;;15.74;100.00;95365.48;646991;216;31585;-72
2021/07/29 01:28:29;;;;;;;7.87;4.80;;;14.20;1.40;;;15.74;100.00;95364.96;631176;220;31729;-71
2021/07/29 01:31:14;;;;;;;6.00;4.32;;;14.30;1.40;;;15.71;100.00;95361.16;645560;212;31553;-71
2021/07/29 01:35:51;;;;;;;6.45;4.20;;;14.30;1.40;;;15.68;100.00;95361.73;619521;222;32022;-70
2021/07/29 01:38:33;;;;;;;5.53;4.10;;;14.30;1.40;;;15.74;100.00;95363.03;646907;216;31600;-71
2021/07/29 01:41:15;;;;;;;5.57;4.87;;;14.40;1.40;;;15.82;100.00;95370.94;635893;216;31673;-70
2021/07/29 01:44:00;;;;;;;5.62;4.10;;;14.50;1.40;;;15.93;100.00;95377.64;646062;216;32098;-72
2021/07/29 01:46:48;;;;;;;4.40;4.00;;;14.50;1.40;;;16.03;100.00;95369.48;646271;212;42812;-72
2021/07/29 01:49:35;;;;;;;5.78;3.83;;;14.50;1.40;;;15.86;100.00;95363.10;645213;216;32162;-72
2021/07/29 01:52:20;;;;;;;4.40;3.40;;;14.40;1.40;;;15.75;100.00;95365.83;646495;212;31587;-71
2021/07/29 01:55:08;;;;;;;5.60;3.30;;;14.40;1.40;;;15.62;100.00;95368.56;645953;216;31581;-71
2021/07/29 01:57:52;;;;;;;3.60;3.30;;;14.30;1.40;;;15.51;100.00;95363.14;646361;216;31594;-72
2021/07/29 02:00:34;;;;;;;6.68;3.90;;;14.30;1.40;;;15.47;100.00;95362.39;646468;212;32990;-71
2021/07/29 02:03:15;;;;;;;3.58;2.90;;;14.30;1.40;;;15.55;100.00;95365.73;646374;216;31568;-71
2021/07/29 02:06:02;;;;;;;5.10;3.70;;;14.20;1.40;;;15.52;100.00;95366.14;645922;216;31608;-71
2021/07/29 02:08:43;;;;;;;4.45;3.12;;;14.10;1.40;;;15.49;100.00;95372.30;646392;216;31588;-71
2021/07/29 02:11:29;;;;;;;6.35;4.15;;;14.00;1.40;;;15.46;100.00;95373.73;644977;216;31921;-70
2021/07/29 02:14:07;;;;;;;6.25;4.00;;;13.90;1.40;;;15.41;100.00;95373.57;646551;216;31917;-71
2021/07/29 02:16:49;;;;;;;4.50;3.60;;;13.90;1.40;;;15.33;100.00;95377.48;646760;216;31573;-71
2021/07/29 02:19:36;;;;;;;4.00;3.60;;;13.90;1.40;;;15.29;100.00;95376.42;646252;216;31599;-71
2021/07/29 02:22:24;;;;;;;5.20;3.72;;;13.90;1.40;;;15.27;100.00;95374.37;645702;216;42215;-72
2021/07/29 02:25:08;;;;;;;6.75;3.50;;;13.90;1.40;;;15.32;100.00;95370.34;645739;216;34492;-71
2021/07/29 02:27:50;;;;;;;4.40;3.30;;;13.90;1.40;;;15.39;100.00;95373.78;646854;216;32416;-71
2021/07/29 02:30:37;;;;;;;6.15;3.50;;;14.00;1.40;;;15.49;100.00;95374.34;618533;226;43382;-71
2021/07/29 02:35:57;;;;;;;6.15;3.53;;;14.00;1.40;;;15.41;100.00;95376.92;646805;216;31626;-70
2021/07/29 02:38:38;;;;;;;3.47;2.80;;;14.00;1.40;;;15.45;100.00;95375.28;646687;216;32233;-71
2021/07/29 02:41:29;;;;;;;5.62;3.40;;;14.10;1.40;;;15.53;100.00;95383.04;633993;216;31713;-72
2021/07/29 02:44:15;;;;;;;5.85;3.50;;;14.10;1.40;;;15.36;100.00;95385.27;646280;212;31616;-72
2021/07/29 02:46:54;;;;;;;8.65;3.80;;;14.00;1.40;;;15.26;100.00;95385.96;645458;216;31583;-70
2021/07/29 02:49:42;;;;;;;6.00;3.35;;;14.00;1.40;;;15.37;100.00;95386.14;646302;216;31604;-71
2021/07/29 02:52:29;;;;;;;9.18;3.60;;;14.10;1.40;;;15.35;100.00;95382.80;646369;212;31572;-71
2021/07/29 02:55:11;;;;;;;6.40;3.50;;;14.10;1.40;;;15.40;100.00;95390.65;646371;212;32181;-71
2021/07/29 03:00:33;;;;;;;6.90;3.60;;;14.20;1.40;;;15.67;100.00;95389.07;618404;226;42592;-72
2021/07/29 03:03:15;;;;;;;3.47;2.75;;;14.30;1.40;;;15.72;100.00;95386.71;642073;216;31580;-72
2021/07/29 03:06:02;;;;;;;4.87;2.70;;;14.40;1.40;;;15.80;100.00;95380.97;647708;216;31600;-72
2021/07/29 03:08:44;;;;;;;4.53;2.72;;;14.40;1.40;;;15.82;100.00;95383.52;645801;212;31840;-71
2021/07/29 03:11:32;;;;;;;3.58;3.10;;;14.50;1.40;;;15.99;100.00;95389.31;645444;216;31575;-72
2021/07/29 03:14:15;;;;;;;6.00;2.83;;;14.50;1.40;;;15.79;100.00;95388.83;646658;216;31600;-71
2021/07/29 03:16:55;;;;;;;3.00;2.70;;;14.50;1.40;;;15.76;100.00;95391.09;619457;222;32072;-71
2021/07/29 03:19:39;;;;;;;4.23;2.47;;;14.50;1.40;;;15.68;100.00;95388.19;645168;212;31727;-70
2021/07/29 03:22:21;;;;;;;3.33;2.40;;;14.50;1.40;;;15.74;100.00;95391.23;646430;216;31663;-71
2021/07/29 03:25:09;;;;;;;6.10;2.80;;;14.50;1.40;;;15.81;100.00;95390.45;646945;216;31580;-71
2021/07/29 03:27:56;;;;;;;3.60;2.80;;;14.50;1.40;;;15.83;100.00;95388.83;647346;212;32229;-71
2021/07/29 03:30:41;;;;;;;5.15;3.00;;;14.50;1.40;;;15.87;100.00;95388.95;646895;212;42195;-71
2021/07/29 03:35:54;;;;;;;3.20;2.90;;;14.50;1.40;;;15.90;100.00;95386.06;645759;216;33014;-72
2021/07/29 03:38:36;;;;;;;3.00;2.60;;;14.50;1.40;;;15.87;100.00;95381.07;646206;216;32172;-71
2021/07/29 03:41:23;;;;;;;4.45;2.60;;;14.50;1.40;;;15.78;100.00;95384.35;634714;212;31732;-72
2021/07/29 03:44:05;;;;;;;3.42;3.03;;;14.50;1.40;;;15.83;100.00;95383.94;619776;225;31885;-71
2021/07/29 03:46:53;;;;;;;3.87;2.70;;;14.40;1.40;;;15.92;100.00;95387.11;646146;212;31548;-71
2021/07/29 03:49:34;;;;;;;4.03;3.40;;;14.50;1.40;;;15.95;100.00;95391.77;646212;212;31551;-72
2021/07/29 03:52:16;;;;;;;3.70;3.40;;;14.50;1.40;;;15.97;100.00;95391.91;646090;216;31880;-72
2021/07/29 03:54:58;;;;;;;2.90;2.50;;;14.60;1.40;;;16.20;100.00;95392.77;619675;222;32024;-71
2021/07/29 03:57:40;;;;;;;3.72;3.42;;;14.60;1.40;;;16.04;100.00;95392.02;646332;212;31569;-71
2021/07/29 04:00:21;;;;;;;5.22;3.20;;;14.60;1.40;;;16.00;100.00;95396.98;647065;216;31645;-72
2021/07/29 04:03:09;;;;;;;3.22;2.92;;;14.60;1.40;;;16.11;100.00;95397.98;647675;212;31795;-72
2021/07/29 04:05:57;;;;;;;5.20;3.20;;;14.70;1.40;;;15.95;100.00;95389.43;645312;216;31592;-70
2021/07/29 04:08:41;;;;;;;3.50;3.20;;;14.60;1.40;;;16.10;100.00;95389.61;646047;212;32090;-71
2021/07/29 04:11:22;;;;;;;4.10;3.47;;;14.60;1.40;;;16.01;100.00;95391.33;647859;212;31730;-72
2021/07/29 04:14:05;;;;;;;5.07;3.50;;;14.50;1.40;;;15.86;100.00;95388.94;645883;216;31737;-72
2021/07/29 04:16:53;;;;;;;5.55;3.37;;;14.50;1.40;;;15.90;100.00;95391.89;647145;216;31565;-71
2021/07/29 04:19:36;;;;;;;5.72;2.97;;;14.60;1.40;;;15.96;100.00;95392.98;647427;216;31571;-72
2021/07/29 04:22:18;;;;;;;5.07;3.00;;;14.70;1.40;;;16.07;100.00;95396.35;645299;212;31781;-71
2021/07/29 04:25:00;;;;;;;5.53;3.10;;;14.80;1.40;;;16.08;100.00;95394.67;645503;216;32214;-71
2021/07/29 04:27:48;;;;;;;5.37;2.78;;;14.80;1.40;;;16.16;100.00;95395.00;646760;216;31537;-72
2021/07/29 04:30:29;;;;;;;5.43;2.60;;;14.90;1.40;;;16.20;100.00;95398.72;646305;216;31827;-72
2021/07/29 04:35:57;;;;;;;5.30;3.30;;;14.90;1.40;;;16.35;100.00;95398.80;646117;216;32695;-71
2021/07/29 04:38:38;;;;;;;5.03;2.90;;;14.90;1.40;;;16.41;100.00;95398.77;646840;212;31558;-72
2021/07/29 04:41:26;;;;;;;3.80;2.70;;;15.00;1.40;;;16.37;100.00;95399.18;635338;216;31719;-71
2021/07/29 04:44:08;;;;;;;6.05;2.47;;;15.10;1.40;;;16.39;100.00;95401.29;646214;212;31578;-71
2021/07/29 04:46:53;;;;;;;3.80;3.00;;;15.10;1.40;;;16.39;100.00;95398.21;646237;212;31542;-72
2021/07/29 04:49:41;;;;;;;3.92;2.87;;;15.10;1.40;;;16.37;100.00;95396.10;647405;216;31640;-73
2021/07/29 04:52:22;;;;;;;5.30;2.78;;;15.10;1.40;;;16.39;100.00;95392.47;644190;212;31664;-71
2021/07/29 04:55:10;;;;;;;3.00;2.80;;;15.10;1.40;;;16.58;100.00;95395.84;646117;216;31577;-72
2021/07/29 04:57:52;;;;;;;3.78;2.78;;;15.10;1.40;;;16.70;100.00;95397.86;647007;216;31613;-71
2021/07/29 05:00:34;;;;;;;5.93;2.50;;;15.20;1.40;;;16.59;100.00;95393.11;645671;216;31639;-71
2021/07/29 05:05:56;;;;;;;4.40;2.70;;;15.40;1.40;;;16.77;100.00;95400.07;644647;216;42091;-71
2021/07/29 05:08:41;;;;;;;4.32;3.25;;;15.60;1.40;;;16.83;100.00;95400.44;631492;221;31740;-71
2021/07/29 05:11:21;;;;;;;8.10;3.20;;;15.60;1.40;;;17.11;100.00;95406.25;646105;216;31558;-71
2021/07/29 05:14:09;;;;;;;5.15;3.00;;;15.80;1.40;;;17.03;100.00;95402.28;647673;216;32264;-71
2021/07/29 05:16:51;;;;;;;6.05;3.17;;;15.80;1.40;;;17.25;100.00;95394.50;646927;216;31642;-72
2021/07/29 05:19:38;;;;;;;5.07;3.15;;;15.80;1.40;;;17.22;100.00;95400.69;646773;212;31835;-71
2021/07/29 05:22:26;;;;;;;3.17;2.80;;;15.70;1.40;;;17.13;100.00;95400.34;645434;216;31583;-72
2021/07/29 05:25:22;;;;;;;5.47;3.00;;;15.70;1.40;;;17.02;100.00;95404.16;645567;216;31548;-71
2021/07/29 05:27:55;;;;;;;5.53;3.20;;;15.60;1.40;;;17.09;100.00;95400.02;646677;212;31629;-73
2021/07/29 05:30:43;;;;;;;5.50;3.25;;;15.60;1.40;;;17.16;100.00;95401.06;645444;216;31987;-71
2021/07/29 05:35:51;;;;;;;5.93;3.10;;;15.80;1.40;;;17.29;100.00;95403.64;646329;212;42289;-73
2021/07/29 05:38:38;;;;;;;4.47;3.35;;;16.10;1.40;;;17.73;100.00;95395.45;645597;212;31658;-72
2021/07/29 05:41:20;;;;;;;3.72;2.40;;;16.40;1.40;;;18.11;100.00;95400.17;634504;216;31983;-71
2021/07/29 05:44:04;;;;;;;4.35;2.70;;;16.80;1.40;;;18.51;100.00;95402.49;646379;216;31925;-72
2021/07/29 05:46:51;;;;;;;2.50;2.30;;;17.00;1.40;;;18.59;100.00;95402.83;647996;216;32155;-69
2021/07/29 05:49:36;;;;;;;2.90;2.60;;;17.10;1.40;;;18.68;100.00;95409.19;646425;212;31567;-70
2021/07/29 05:52:18;;;;;;;5.10;2.50;;;17.40;1.40;;;18.78;100.00;95408.44;644940;216;31557;-69
2021/07/29 05:55:00;;;;;;;2.60;2.40;;;17.50;1.40;;;19.00;100.00;95408.47;646591;212;31723;-70
2021/07/29 05:57:42;;;;;;;4.67;2.80;;;17.60;1.40;;;19.25;100.00;95410.38;645625;216;33536;-70
2021/07/29 06:00:23;;;;;;;2.40;2.20;;;17.80;1.40;;;19.17;100.00;95412.09;645255;212;31813;-70
2021/07/29 06:03:06;;;;;;;2.42;2.22;;;17.80;1.40;;;18.96;100.00;95412.11;644706;212;42821;-70
2021/07/29 06:05:51;;;;;;;2.58;2.37;;;17.70;1.40;;;19.08;100.00;95415.71;647295;216;42282;-70
2021/07/29 06:08:31;;;;;;;3.53;2.90;;;17.70;1.40;;;19.27;100.00;95414.22;644866;216;31600;-70
2021/07/29 06:13:47;;;;;;;5.00;2.90;;;18.10;1.40;;;19.67;100.00;95419.77;645995;212;42257;-70
2021/07/29 06:16:29;;;;;;;4.50;2.80;;;18.20;1.40;;;19.52;100.00;95415.48;647370;212;31841;-69
2021/07/29 06:19:16;;;;;;;3.25;2.95;;;18.10;1.40;;;19.13;100.00;95414.09;647444;216;32162;-70
2021/07/29 06:21:52;;;;;;;3.78;3.30;;;17.80;1.40;;;19.08;100.00;95413.32;646097;216;31546;-70
2021/07/29 06:24:34;;;;;;;4.72;3.30;;;17.70;1.40;;;19.10;100.00;95413.27;644878;216;31570;-70
2021/07/29 06:27:16;;;;;;;5.32;3.40;;;17.80;1.40;;;19.17;100.00;95414.65;646363;212;31574;-70
2021/07/29 06:29:57;;;;;;;4.12;3.40;;;18.00;1.40;;;19.41;100.00;95410.77;646029;216;31574;-69
2021/07/29 06:32:39;;;;;;;4.10;3.03;;;18.10;1.40;;;19.36;100.00;95411.33;646460;212;31568;-70
2021/07/29 06:35:51;;;;;;;6.25;2.95;;;18.20;1.40;;;19.46;100.00;95411.67;646989;212;31608;-70
2021/07/29 06:38:33;;;;;;;3.67;2.70;;;18.30;1.40;;;19.34;100.00;95416.03;644255;213;31534;-69
2021/07/29 06:41:14;;;;;;;3.25;2.95;;;18.30;1.40;;;19.31;100.00;95417.78;636814;212;31712;-69
2021/07/29 06:43:57;;;;;;;2.75;2.45;;;18.30;1.40;;;19.39;100.00;95418.41;630321;222;31811;-70
2021/07/29 06:46:38;;;;;;;3.97;3.10;;;18.40;1.40;;;19.88;100.00;95419.63;647179;216;31573;-70
2021/07/29 06:49:19;;;;;;;4.62;2.83;;;19.00;1.40;;;19.95;98.50;95415.62;647382;212;31599;-69
2021/07/29 06:52:01;;;;;;;3.80;3.40;;;18.90;1.40;;;-143.44;100.00;122422.95;645690;216;31568;-70
2021/07/29 06:54:42;;;;;;;5.00;2.97;;;19.10;1.40;;;;;;644601;212;31779;-69
2021/07/29 06:57:26;;;;;;;4.53;2.80;;;19.00;1.40;;;;;;646748;216;31679;-69
2021/07/29 07:00:08;;;;;;;3.70;3.10;;;18.90;1.40;;;;;;646076;216;32121;-69
2021/07/29 07:02:49;;;;;;;3.58;2.80;;;19.00;1.40;;;;;;646238;216;31578;-70
2021/07/29 07:05:30;;;;;;;4.75;3.00;;;19.10;1.40;;;;;;646690;212;31577;-70
2021/07/29 07:08:13;;;;;;;4.43;3.00;;;19.40;1.40;;;;;;647063;213;31703;-71
2021/07/29 07:10:54;;;;;;;3.25;2.95;;;19.40;1.40;;;;;;645668;212;31704;-73
2021/07/29 07:13:36;;;;;;;5.50;3.58;;;19.50;1.40;;;;;;645308;216;32019;-71
2021/07/29 07:16:17;;;;;;;4.47;2.92;;;19.50;1.40;;;;;;646259;212;31706;-71
2021/07/29 07:19:05;;;;;;;3.92;3.53;;;19.50;1.40;;;;;;647232;216;31614;-71
2021/07/29 07:21:47;;;;;;;3.30;3.00;;;19.70;1.40;;;;;;646731;212;42257;-71
2021/07/29 07:24:34;;;;;;;4.22;3.22;;;19.80;1.40;;;;;;646456;212;31573;-72
2021/07/29 07:27:15;;;;;;;3.28;2.97;;;19.90;1.40;;;;;;645622;212;31615;-71
2021/07/29 07:32:36;;;;;;;3.00;2.80;;;19.80;1.40;;;;;;646321;216;31568;-72
2021/07/29 07:36:00;;;;;;;3.70;3.13;;;20.00;1.40;;;21.43;87.80;95428.52;646316;216;32253;-72
2021/07/29 07:38:42;;;;;;;3.10;2.70;;;19.80;1.40;;;21.28;85.01;95429.39;647104;216;32280;-72
2021/07/29 07:41:24;;;;;;;6.28;3.30;;;19.70;1.40;;;21.25;84.91;95426.61;634705;216;33406;-73
2021/07/29 07:44:06;;;;;;;5.03;3.00;;;19.60;1.40;;;21.35;85.85;95421.92;645490;216;31590;-73
2021/07/29 07:46:54;;;;;;;3.10;2.90;;;19.80;1.40;;;21.28;84.55;95424.97;646869;216;31677;-72
2021/07/29 07:49:35;;;;;;;3.53;3.22;;;19.70;1.40;;;21.73;85.99;95418.73;647491;216;33177;-73
2021/07/29 07:52:20;;;;;;;3.42;3.12;;;20.00;1.40;;;22.27;83.43;95415.19;645664;216;31851;-72
2021/07/29 07:55:02;;;;;;;2.90;2.65;;;20.30;1.40;;;21.93;81.80;95419.55;647178;212;32255;-72
2021/07/29 07:57:43;;;;;;;3.10;2.80;;;20.30;1.40;;;21.77;80.98;95419.70;646353;213;31599;-71
2021/07/29 08:00:25;;;;;;;4.12;3.08;;;20.40;1.40;;;21.92;83.04;95417.31;647263;212;31989;-72
2021/07/29 08:03:13;;;;;;;4.20;3.60;;;20.80;1.40;;;22.37;80.35;95408.32;645928;212;31696;-72
2021/07/29 08:06:02;;;;;;;4.30;2.80;;;21.00;1.40;;;22.21;79.20;95409.67;646849;216;31672;-72
2021/07/29 08:08:49;;;;;;;3.92;3.30;;;20.90;1.40;;;22.27;81.81;95408.19;646517;216;31735;-71
2021/07/29 08:11:37;;;;;;;3.20;2.90;;;21.00;1.40;;;22.45;77.42;95409.56;646427;212;31647;-71
2021/07/29 08:16:35;;;;;;;3.80;2.97;;;21.70;1.40;;;23.23;75.78;95399.03;646877;216;31633;-72
2021/07/29 08:19:25;;;;;;;2.80;2.60;;;21.70;1.40;;;23.62;71.24;95398.27;617590;226;31912;-71
2021/07/29 08:22:13;;;;;;;2.70;2.50;;;21.70;1.40;;;22.83;73.32;95397.73;646423;212;31601;-71
2021/07/29 08:25:01;;;;;;;3.75;2.70;;;21.30;1.40;;;22.53;74.70;95396.59;646327;216;31672;-71
2021/07/29 08:27:43;;;;;;;4.80;3.00;;;21.10;1.40;;;22.39;75.56;95393.24;645625;216;31790;-72
2021/07/29 08:30:27;;;;;;;3.15;2.60;;;21.10;1.40;;;22.81;76.40;95392.47;646095;216;31592;-72
2021/07/29 08:35:51;;;;;;;2.97;2.75;;;21.40;1.40;;;23.57;74.90;95384.59;647090;212;31591;-71
2021/07/29 08:38:32;;;;;;;5.35;3.65;;;22.10;1.40;;;23.38;74.04;95385.28;632116;221;31788;-72
2021/07/29 08:41:16;;;;;;;3.10;2.90;;;22.10;1.40;;;23.47;70.54;95381.41;636859;216;31736;-71
2021/07/29 08:46:38;;;;;;;3.33;2.90;;;22.70;1.40;;;24.56;65.97;95381.01;646436;212;34834;-72
2021/07/29 08:49:20;;;;;;;4.30;3.43;;;23.20;1.40;;;24.54;60.37;95380.56;646920;212;31649;-72
2021/07/29 08:52:01;;;;;;;2.80;2.60;;;23.10;1.40;;;24.31;62.19;95379.75;647054;212;31659;-72
2021/07/29 08:54:43;;;;;;;3.58;2.95;;;22.50;1.40;;;23.93;66.18;95383.25;647296;216;35635;-72
2021/07/29 08:57:30;;;;;;;3.10;2.80;;;22.40;1.40;;;24.72;62.98;95382.45;646564;216;31715;-71
2021/07/29 09:00:13;;;;;;;4.07;2.90;;;23.10;1.40;;;24.08;62.61;95390.37;645185;212;42768;-71
2021/07/29 09:02:54;;;;;;;3.00;2.70;;;22.70;1.40;;;24.21;62.82;95382.69;646508;212;31776;-72
2021/07/29 09:05:42;;;;;;;3.85;3.10;;;22.80;1.40;;;23.78;61.60;95381.86;646406;216;42787;-73
2021/07/29 09:08:30;;;;;;;3.10;2.80;;;22.60;1.40;;;23.91;59.89;95386.83;646705;212;31564;-72
2021/07/29 09:11:32;;;;;;;3.22;2.92;;;22.80;1.40;;;23.41;60.82;95386.52;647652;212;31654;-72
2021/07/29 09:14:15;;;;;;;3.28;2.97;;;22.40;1.40;;;23.93;61.06;95385.91;645143;216;31591;-72
2021/07/29 09:16:58;;;;;;;3.42;3.12;;;23.00;1.40;;;23.69;61.30;95384.17;646681;216;32140;-71
2021/07/29 09:19:44;;;;;;;3.40;3.10;;;22.70;1.40;;;23.42;65.07;95386.53;645311;216;42870;-73
2021/07/29 09:22:33;;;;;;;3.90;3.50;;;22.70;1.40;;;24.60;63.30;95381.78;642350;216;31758;-71
2021/07/29 09:25:14;;;;;;;3.10;2.80;;;23.60;1.40;;;26.05;59.60;95378.84;647086;212;42207;-72
2021/07/29 09:27:58;;;;;;;4.00;3.08;;;25.50;1.40;;;25.92;56.54;95381.80;646808;216;31593;-72
2021/07/29 09:30:37;;;;;;;3.70;3.30;;;25.20;1.40;;;25.83;56.22;95379.70;645087;212;31576;-71
2021/07/29 09:35:57;;;;;;;3.70;3.10;;;25.50;1.40;;;27.85;50.49;95373.68;646089;212;31691;-71
2021/07/29 09:38:45;;;;;;;3.45;2.87;;;25.70;1.40;;;27.83;52.32;95369.70;647228;216;31900;-73
2021/07/29 09:41:27;;;;;;;3.33;3.12;;;25.30;1.40;;;27.68;52.92;95377.06;635076;216;42810;-72
2021/07/29 09:44:09;;;;;;;4.03;3.72;;;25.70;1.40;;;27.85;48.98;95377.76;646696;212;32093;-72
2021/07/29 09:47:01;;;;;;;3.50;3.20;;;26.50;1.40;;;29.81;47.33;95372.20;646186;212;31581;-72
2021/07/29 09:49:42;;;;;;;3.58;3.28;;;28.40;1.40;;;31.13;43.83;95374.72;645826;216;31634;-72
2021/07/29 09:52:30;;;;;;;3.42;3.12;;;28.40;1.40;;;29.95;44.30;95370.55;645982;216;31653;-72
2021/07/29 09:55:11;;;;;;;3.90;3.60;;;27.30;1.40;;;27.38;50.86;95374.12;646688;216;31741;-72
2021/07/29 09:57:53;;;;;;;4.12;3.72;;;24.80;1.40;;;25.83;56.71;95377.54;646786;212;32264;-72
2021/07/29 10:00:35;;;;;;;4.07;3.78;;;23.70;1.40;;;26.93;52.94;95364.12;646300;216;32300;-72
2021/07/29 10:03:23;;;;;;;4.07;3.78;;;25.10;1.40;;;28.59;50.10;95355.72;647678;216;31574;-72
2021/07/29 10:06:06;;;;;;;4.65;3.58;;;26.80;1.40;;;29.26;47.67;95354.50;646756;212;31638;-72
2021/07/29 10:08:54;;;;;;;3.60;3.30;;;27.30;1.40;;;30.25;46.45;95355.73;646943;216;31594;-71
2021/07/29 10:11:35;;;;;;;3.40;3.10;;;26.60;1.40;;;29.78;45.57;95359.37;646815;212;32184;-71
2021/07/29 10:14:33;;;;;;;3.80;3.50;;;27.10;1.40;;;-143.44;100.00;122422.95;645783;212;31636;-72
2021/07/29 10:17:32;;;;;;;3.83;3.53;;;26.50;1.40;;;;;;645049;212;31583;-70
2021/07/29 10:20:17;;;;;;;3.90;3.60;;;26.10;1.40;;;;;;646894;216;31620;-70
2021/07/29 10:23:09;;;;;;;4.10;3.70;;;26.40;1.40;;;;;;646766;212;31972;-71
2021/07/29 10:26:08;;;;;;;3.17;2.97;;;27.70;1.40;;;;;;646019;212;31707;-71
2021/07/29 10:28:49;;;;;;;3.65;3.35;;;28.00;1.40;;;;;;646462;216;31765;-70
2021/07/29 10:31:42;;;;;;;3.85;3.55;;;29.60;1.40;;;;;;645632;216;42352;-72
2021/07/29 10:35:51;;;;;;;4.20;3.80;;;27.20;1.40;;;31.71;39.72;95341.64;646261;216;31735;-71
2021/07/29 10:38:46;;;;;;;3.80;3.50;;;27.10;1.40;;;33.31;39.31;95333.16;645987;212;32523;-71
2021/07/29 10:41:45;;;;;;;3.50;3.20;;;28.80;1.40;;;34.15;39.43;95331.84;635206;216;31808;-71
2021/07/29 10:44:47;;;;;;;3.80;3.20;;;29.20;1.40;;;33.03;39.52;95334.75;646362;212;31743;-70
2021/07/29 10:47:35;;;;;;;3.87;3.58;;;28.30;1.40;;;31.40;42.10;95334.64;645772;216;31718;-70
2021/07/29 10:50:16;;;;;;;3.90;3.60;;;27.20;1.40;;;29.88;44.23;95341.52;619483;223;31904;-70
2021/07/29 10:52:58;;;;;;;3.78;3.58;;;25.80;1.40;;;28.42;46.73;95340.20;645577;212;31594;-71
2021/07/29 10:55:39;;;;;;;3.70;3.40;;;25.20;1.40;;;27.57;48.68;95339.99;619172;226;31909;-70
2021/07/29 10:58:21;;;;;;;3.60;3.30;;;25.20;1.40;;;26.46;52.30;95338.49;646005;212;31625;-70
2021/07/29 11:01:03;;;;;;;5.90;3.90;;;24.50;1.40;;;-143.44;100.00;122422.95;646699;216;31584;-70
2021/07/29 11:03:47;;;;;;;3.90;3.60;;;27.30;1.40;;;;;;618368;226;31916;-70
2021/07/29 11:06:36;;;;;;;3.70;3.30;;;29.50;1.40;;;;;;647173;216;35466;-70
2021/07/29 11:09:19;;;;;;;3.72;3.42;;;29.40;1.40;;;;;;645482;212;31593;-70
2021/07/29 11:12:04;;;;;;;3.60;3.30;;;26.90;1.40;;;;;;646932;216;31548;-71
2021/07/29 11:14:45;;;;;;;3.80;3.50;;;28.10;1.40;;;;;;645294;216;31675;-70
2021/07/29 11:17:27;;;;;;;3.60;3.30;;;27.80;1.40;;;;;;646405;216;31553;-70
2021/07/29 11:20:08;;;;;;;3.37;3.08;;;28.80;1.40;;;;;;645948;216;42329;-70
2021/07/29 11:22:48;;;;;;;3.90;3.50;;;26.30;1.40;;;;;;646919;212;31670;-70
2021/07/29 11:25:31;;;;;;;4.03;3.67;;;25.00;1.40;;;;;;647630;212;42385;-68
2021/07/29 11:28:12;;;;;;;3.87;3.47;;;24.40;1.40;;;;;;647008;213;42171;-68
2021/07/29 11:30:52;;;;;;;3.90;3.60;;;25.20;1.40;;;;;;646895;216;31556;-69
2021/07/29 11:35:51;;;;;;;4.10;3.40;;;26.90;1.40;;;-143.44;100.00;122422.95;645543;212;32576;-69
2021/07/29 11:38:32;;;;;;;3.70;3.40;;;25.80;1.40;;;;;;646501;216;31595;-69
2021/07/29 11:41:13;;;;;;;3.62;3.33;;;25.90;1.40;;;;;;636464;212;31758;-69
2021/07/29 11:44:03;;;;;;;3.67;3.37;;;26.50;1.40;;;;;;647409;216;31592;-69
2021/07/29 11:46:53;;;;;;;3.80;3.40;;;26.70;1.40;;;;;;646016;212;31603;-68
2021/07/29 11:49:45;;;;;;;3.70;3.40;;;26.50;1.40;;;;;;645969;216;31605;-68
2021/07/29 11:52:29;;;;;;;3.70;3.40;;;27.20;1.40;;;;;;646171;212;31554;-69
2021/07/29 11:55:14;;;;;;;3.60;3.30;;;27.60;1.40;;;;;;645984;212;31576;-71
2021/07/29 11:57:53;;;;;;;3.60;2.95;;;28.20;1.40;;;;;;647267;212;32189;-71
2021/07/29 12:00:34;;;;;;;4.10;3.70;;;27.80;1.40;;;;;;646780;212;42316;-73
2021/07/29 12:03:26;;;;;;;3.40;3.20;;;25.60;1.40;;;;;;647326;216;31671;-72
2021/07/29 12:06:12;;;;;;;3.72;3.20;;;26.60;1.40;;;;;;644900;216;31902;-72
2021/07/29 12:08:54;;;;;;;3.95;3.60;;;28.00;1.40;;;;;;646374;216;31591;-72
2021/07/29 12:11:35;;;;;;;3.70;3.40;;;26.70;1.40;;;;;;645912;216;31575;-72
2021/07/29 12:14:16;;;;;;;3.75;3.45;;;27.70;1.40;;;;;;618489;222;31868;-72
2021/07/29 12:17:03;;;;;;;3.58;3.28;;;28.40;1.40;;;;;;646667;212;32264;-72
2021/07/29 12:19:55;;;;;;;3.90;3.37;;;27.50;1.40;;;;;;644992;212;31762;-71
2021/07/29 12:22:41;;;;;;;3.42;3.12;;;27.80;1.40;;;;;;646905;212;31597;-72
2021/07/29 12:25:26;;;;;;;3.50;3.20;;;28.30;1.40;;;;;;647126;212;31882;-72
2021/07/29 12:28:08;;;;;;;3.97;3.62;;;26.20;1.40;;;;;;646446;212;31598;-72
2021/07/29 12:30:49;;;;;;;3.70;3.40;;;25.40;1.40;;;;;;647236;216;31589;-72
2021/07/29 12:35:59;;;;;;;4.20;3.50;;;27.20;1.40;;;;;;644817;212;32020;-72
2021/07/29 12:38:40;;;;;;;3.40;3.20;;;28.10;1.40;;;;;;646002;216;32182;-72
2021/07/29 12:41:30;;;;;;;3.75;3.45;;;29.00;1.40;;;;;;634477;216;31866;-73
2021/07/29 12:44:15;;;;;;;3.72;3.40;;;30.20;1.40;;;;;;646418;216;42845;-72